Palmas de Monte Alto, Brazil
Current Conditions -  °F | °C
As of 9:00 AM on Monday 26 Jan 2015 (Local Time) from SBQV Reporting Station
Broken Clouds Broken Clouds  
Wind Chill: 72°   Ceiling: 1300
Heat Index: 72°   Visibility: 6mi
Dew Point: 66°   Wind: 2mph
Humidity: 83%   Direction: 20°NNE
Pressure: 30.15"   Gusts: NA
Location:  14.27°S, 43.16°W
Report Text: SBQV 261200Z 02002KT 9999 BKN013 22/19 Q1021
Loading
Personal Weather Stations






























Interactive Weather Map New forecast layout! Learn more

10-Day Weather Forecast

Advertisements
Track Severe Weather on mobile